Time;durP1;ratioP1;P1;durP2;ratioP2;P2;SDS_P1;SDS_P2;PMS_P1;PMS_P2;Temp;Humidity;BMP_temperature;BMP_pressure;BME280_temperature;BME280_humidity;BME280_pressure;Samples;Min_cycle;Max_cycle;Signal;HPM_P1;HPM_P2
2023/06/18 00:03:10;;;;;;;12.52;7.47;;;23.00;73.20;;;;;;10452042;28;20074;-66
2023/06/18 00:08:11;;;;;;;13.30;6.93;;;22.90;73.20;;;;;;10448540;28;20354;-65
2023/06/18 00:13:11;;;;;;;16.98;7.47;;;22.90;73.20;;;;;;10450783;28;20027;-66
2023/06/18 00:18:12;;;;;;;12.10;6.95;;;22.80;73.20;;;;;;10453288;28;20032;-65
2023/06/18 00:23:12;;;;;;;11.60;6.47;;;22.80;73.20;;;;;;10450141;28;20024;-66
2023/06/18 00:28:13;;;;;;;12.77;7.13;;;22.80;73.30;;;;;;10439055;28;20508;-66
2023/06/18 00:33:14;;;;;;;11.82;6.57;;;22.60;73.20;;;;;;10444618;28;20028;-66
2023/06/18 00:38:16;;;;;;;14.18;7.25;;;22.70;73.30;;;;;;10439627;28;20191;-66
2023/06/18 00:43:18;;;;;;;12.55;6.88;;;22.60;73.30;;;;;;10452758;28;20511;-64
2023/06/18 00:48:18;;;;;;;11.18;6.90;;;22.60;73.40;;;;;;10439442;28;20024;-66
2023/06/18 00:53:20;;;;;;;10.13;7.03;;;22.60;73.40;;;;;;10441836;28;20033;-66
2023/06/18 00:58:23;;;;;;;11.80;7.03;;;22.60;73.40;;;;;;10455275;28;20033;-65
2023/06/18 01:03:25;;;;;;;11.75;7.00;;;22.50;73.40;;;;;;10447788;28;20009;-66
2023/06/18 01:08:28;;;;;;;11.23;7.43;;;22.50;73.40;;;;;;10446959;28;20595;-66
2023/06/18 01:13:36;;;;;;;12.20;7.85;;;22.50;73.40;;;;;;10444395;28;20021;-65
2023/06/18 01:18:44;;;;;;;13.50;7.45;;;22.40;73.40;;;;;;10445425;28;20029;-65
2023/06/18 01:24:11;;;;;;;12.48;7.82;;;22.50;73.50;;;;;;10449421;28;20036;-65
2023/06/18 01:29:12;;;;;;;12.23;6.95;;;22.40;74.10;;;;;;10444811;28;20027;-64
2023/06/18 01:34:13;;;;;;;12.85;7.28;;;22.40;73.50;;;;;;10446079;28;20459;-64
2023/06/18 01:39:23;;;;;;;12.15;7.28;;;22.30;73.50;;;;;;10446186;28;20021;-63
2023/06/18 01:44:26;;;;;;;12.35;8.35;;;22.30;73.50;;;;;;10450100;28;20105;-62
2023/06/18 01:49:27;;;;;;;11.63;8.10;;;22.30;73.60;;;;;;10427087;28;20471;-61
2023/06/18 01:54:28;;;;;;;10.43;7.00;;;22.20;73.50;;;;;;10449340;28;20370;-65
2023/06/18 01:59:29;;;;;;;14.98;8.00;;;22.20;73.60;;;;;;10432830;28;20025;-65
2023/06/18 02:04:29;;;;;;;11.35;7.70;;;22.20;73.60;;;;;;10437701;28;20029;-64
2023/06/18 02:09:30;;;;;;;10.80;7.80;;;22.10;73.60;;;;;;10438504;28;20102;-65
2023/06/18 02:14:31;;;;;;;12.48;8.15;;;22.10;73.60;;;;;;10435820;28;20040;-64
2023/06/18 02:19:31;;;;;;;14.52;8.57;;;22.10;73.70;;;;;;10437293;28;20067;-65
2023/06/18 02:24:32;;;;;;;11.32;7.78;;;22.10;73.70;;;;;;10445400;28;20033;-65
2023/06/18 02:29:33;;;;;;;10.95;7.63;;;22.10;73.70;;;;;;10437626;28;20029;-64
2023/06/18 02:34:34;;;;;;;12.88;8.45;;;22.00;73.70;;;;;;10445081;28;20036;-65
2023/06/18 02:39:34;;;;;;;11.02;8.05;;;22.00;73.70;;;;;;10449382;28;20096;-65
2023/06/18 02:44:36;;;;;;;13.68;7.82;;;21.90;73.70;;;;;;10440122;28;20097;-65
2023/06/18 02:49:37;;;;;;;12.73;8.30;;;21.90;73.90;;;;;;10445535;28;20112;-64
2023/06/18 02:54:38;;;;;;;12.93;8.77;;;21.90;73.80;;;;;;10443792;28;20050;-65
2023/06/18 02:59:39;;;;;;;10.90;7.90;;;21.90;73.90;;;;;;10455968;28;20031;-65
2023/06/18 03:04:40;;;;;;;12.00;8.55;;;21.90;73.90;;;;;;10451189;28;20078;-64
2023/06/18 03:09:40;;;;;;;13.75;8.93;;;21.80;73.90;;;;;;10454476;28;20025;-64
2023/06/18 03:14:41;;;;;;;12.93;8.70;;;21.80;73.90;;;;;;10448612;28;20082;-65
2023/06/18 03:19:41;;;;;;;14.68;9.73;;;21.70;74.00;;;;;;10453323;28;20158;-65
2023/06/18 03:24:42;;;;;;;12.55;9.05;;;21.70;74.00;;;;;;10446679;28;20033;-64
2023/06/18 03:29:43;;;;;;;11.45;7.97;;;21.70;74.00;;;;;;10449477;28;20029;-65
2023/06/18 03:34:48;;;;;;;12.93;8.68;;;21.70;74.10;;;;;;10450152;28;20087;-64
2023/06/18 03:39:49;;;;;;;12.50;8.27;;;21.70;74.10;;;;;;10451989;28;20029;-64
2023/06/18 03:44:49;;;;;;;13.20;9.10;;;21.60;74.10;;;;;;10446647;28;20025;-65
2023/06/18 03:49:50;;;;;;;11.43;8.30;;;21.60;74.10;;;;;;10446733;28;20036;-64
2023/06/18 03:54:52;;;;;;;14.75;8.38;;;21.60;74.20;;;;;;10449046;28;20036;-64
2023/06/18 03:59:52;;;;;;;12.77;8.05;;;21.60;74.20;;;;;;10452146;28;20074;-65
2023/06/18 04:04:53;;;;;;;13.23;8.40;;;21.60;74.20;;;;;;10440767;28;20399;-64
2023/06/18 04:09:53;;;;;;;12.43;8.43;;;21.60;74.20;;;;;;10451023;28;20025;-65
2023/06/18 04:14:54;;;;;;;11.30;7.75;;;21.50;74.20;;;;;;10445592;28;20036;-65
2023/06/18 04:19:55;;;;;;;12.18;8.18;;;21.50;74.20;;;;;;10450775;28;20428;-64
2023/06/18 04:24:55;;;;;;;12.77;8.68;;;21.50;74.20;;;;;;10445374;28;20043;-64
2023/06/18 04:29:56;;;;;;;14.27;8.52;;;21.50;74.30;;;;;;10449222;28;20086;-66
2023/06/18 04:34:56;;;;;;;15.13;8.68;;;21.60;74.90;;;;;;10455789;28;20025;-64
2023/06/18 04:39:57;;;;;;;11.93;8.43;;;21.50;74.40;;;;;;10455568;28;20028;-65
2023/06/18 04:44:57;;;;;;;11.57;7.95;;;21.50;74.40;;;;;;10438651;28;20124;-64
2023/06/18 04:49:58;;;;;;;12.48;8.27;;;21.40;74.40;;;;;;10433193;28;20040;-64
2023/06/18 04:54:59;;;;;;;13.02;8.20;;;21.40;74.40;;;;;;10443624;28;20108;-64
2023/06/18 05:00:00;;;;;;;13.95;9.10;;;21.40;74.40;;;;;;10455221;28;20028;-64
2023/06/18 05:05:01;;;;;;;14.32;8.82;;;21.70;74.60;;;;;;10448231;28;20025;-64
2023/06/18 05:10:02;;;;;;;11.60;8.15;;;21.40;74.40;;;;;;10444742;28;20485;-64
2023/06/18 05:15:02;;;;;;;11.35;8.07;;;21.40;74.40;;;;;;10443083;28;20052;-64
2023/06/18 05:20:04;;;;;;;13.55;8.05;;;21.40;74.40;;;;;;10446497;28;20078;-66
2023/06/18 05:25:05;;;;;;;12.30;7.93;;;21.40;74.50;;;;;;10449338;28;20162;-65
2023/06/18 05:30:07;;;;;;;10.85;7.57;;;21.40;74.50;;;;;;10454808;28;20103;-66
2023/06/18 05:35:08;;;;;;;12.18;8.18;;;21.40;74.50;;;;;;10452491;28;20024;-64
2023/06/18 05:40:09;;;;;;;12.15;8.23;;;21.40;74.50;;;;;;10446654;28;20538;-66
2023/06/18 05:45:10;;;;;;;11.75;8.50;;;21.40;74.50;;;;;;10447248;28;20053;-65
2023/06/18 05:50:11;;;;;;;12.80;8.55;;;21.40;74.60;;;;;;10449301;28;20447;-64
2023/06/18 05:55:11;;;;;;;11.25;7.47;;;21.30;74.50;;;;;;10448507;28;20036;-65
2023/06/18 06:00:12;;;;;;;13.32;8.45;;;21.40;74.50;;;;;;10444937;28;20009;-64
2023/06/18 06:05:13;;;;;;;12.75;8.52;;;21.40;74.50;;;;;;10426667;28;20392;-65
2023/06/18 06:10:18;;;;;;;14.68;8.15;;;21.40;74.60;;;;;;10456290;28;20037;-64
2023/06/18 06:15:19;;;;;;;11.98;8.20;;;21.40;74.60;;;;;;10446369;28;20049;-64
2023/06/18 06:20:20;;;;;;;14.48;8.70;;;21.40;74.50;;;;;;10450097;28;20099;-65
2023/06/18 06:25:21;;;;;;;14.38;8.10;;;21.40;74.60;;;;;;10452967;28;20033;-65
2023/06/18 06:30:21;;;;;;;12.73;8.32;;;21.50;74.40;;;;;;10444681;28;20030;-64
2023/06/18 06:35:23;;;;;;;9.80;7.03;;;21.50;74.30;;;;;;10446118;28;20332;-64
2023/06/18 06:40:24;;;;;;;11.93;7.78;;;21.50;74.20;;;;;;10448623;28;20037;-64
2023/06/18 06:45:27;;;;;;;12.20;8.07;;;21.60;74.30;;;;;;10446995;28;20032;-67
2023/06/18 06:50:28;;;;;;;10.18;7.47;;;21.60;74.30;;;;;;10435447;28;20040;-64
2023/06/18 06:55:28;;;;;;;12.52;8.15;;;21.40;74.80;;;;;;10450458;28;20137;-65
2023/06/18 07:00:29;;;;;;;11.70;7.32;;;21.50;74.40;;;;;;10457849;28;20500;-63
2023/06/18 07:05:30;;;;;;;10.10;7.50;;;21.60;74.40;;;;;;10450816;28;20032;-63
2023/06/18 07:10:32;;;;;;;12.35;7.57;;;21.50;74.20;;;;;;10455406;28;20027;-63
2023/06/18 07:15:33;;;;;;;10.80;7.60;;;21.60;74.30;;;;;;10444377;28;20473;-64
2023/06/18 07:20:33;;;;;;;12.18;8.05;;;21.60;74.20;;;;;;10448230;28;20017;-64
2023/06/18 07:25:34;;;;;;;10.90;7.60;;;21.60;74.10;;;;;;10458089;28;20079;-65
2023/06/18 07:30:34;;;;;;;13.73;8.15;;;21.60;74.10;;;;;;10456057;28;20075;-69
2023/06/18 07:35:35;;;;;;;12.98;7.75;;;21.70;74.20;;;;;;10449114;28;20032;-67
2023/06/18 07:40:38;;;;;;;14.20;8.32;;;21.70;74.30;;;;;;10444471;28;20017;-67
2023/06/18 07:45:38;;;;;;;11.07;8.63;;;21.70;74.20;;;;;;10444594;28;20391;-66
2023/06/18 07:50:39;;;;;;;11.88;7.35;;;21.80;74.20;;;;;;10450630;28;20048;-67
2023/06/18 07:55:40;;;;;;;10.35;7.30;;;21.80;74.20;;;;;;10453470;28;20025;-67
2023/06/18 08:00:40;;;;;;;11.50;7.53;;;21.80;74.20;;;;;;10447588;28;20079;-67
2023/06/18 08:05:41;;;;;;;9.65;7.18;;;21.80;74.10;;;;;;10454479;28;20480;-67
2023/06/18 08:10:41;;;;;;;11.05;7.57;;;21.90;74.10;;;;;;10447164;28;20032;-66
2023/06/18 08:15:42;;;;;;;10.23;7.30;;;21.90;74.00;;;;;;10449207;28;20303;-67
2023/06/18 08:20:43;;;;;;;13.52;8.02;;;21.90;73.90;;;;;;10452207;28;20028;-67
2023/06/18 08:25:46;;;;;;;12.25;8.60;;;22.00;73.90;;;;;;10444163;28;20496;-67
2023/06/18 08:30:46;;;;;;;11.98;7.70;;;22.00;73.90;;;;;;10445409;28;20045;-66
2023/06/18 08:35:47;;;;;;;13.88;8.15;;;22.10;73.90;;;;;;10455843;28;20112;-66
2023/06/18 08:40:55;;;;;;;12.50;7.28;;;22.10;73.90;;;;;;10453864;28;20067;-65
2023/06/18 08:45:59;;;;;;;13.80;7.85;;;22.20;73.90;;;;;;10442912;28;20091;-67
2023/06/18 08:51:03;;;;;;;10.90;7.50;;;22.30;73.90;;;;;;10447043;28;20013;-67
2023/06/18 08:56:06;;;;;;;11.95;7.53;;;22.30;73.90;;;;;;10447271;28;20551;-67
2023/06/18 09:01:07;;;;;;;10.48;7.32;;;22.30;73.90;;;;;;10448589;28;20031;-66
2023/06/18 09:06:09;;;;;;;10.80;7.47;;;22.30;73.90;;;;;;10445270;28;20041;-67
2023/06/18 09:11:09;;;;;;;10.10;7.32;;;22.40;74.00;;;;;;10448203;28;20148;-66
2023/06/18 09:16:11;;;;;;;10.93;7.45;;;22.40;73.90;;;;;;10452424;28;20488;-67
2023/06/18 09:21:38;;;;;;;11.05;7.65;;;22.50;73.90;;;;;;10452536;28;20084;-67
2023/06/18 09:26:40;;;;;;;11.15;6.97;;;22.60;74.20;;;;;;10446995;28;20531;-66
2023/06/18 09:31:44;;;;;;;8.68;6.90;;;22.60;73.80;;;;;;10437537;28;20026;-66
2023/06/18 09:36:47;;;;;;;10.13;6.55;;;22.60;73.70;;;;;;10442786;28;20025;-66
2023/06/18 09:41:50;;;;;;;10.75;7.47;;;22.70;73.70;;;;;;10451255;28;20022;-66
2023/06/18 09:46:58;;;;;;;11.90;7.05;;;22.70;73.60;;;;;;10442092;28;20031;-66
2023/06/18 09:51:59;;;;;;;;;;;22.80;74.30;;;;;;10450214;28;20477;-67
2023/06/18 09:57:02;;;;;;;12.90;7.38;;;22.80;73.90;;;;;;10462718;28;19908;-67
2023/06/18 10:02:04;;;;;;;11.18;7.28;;;22.90;73.60;;;;;;10443680;28;20013;-66
2023/06/18 10:07:13;;;;;;;10.00;7.60;;;22.90;73.50;;;;;;10456099;28;20048;-67
2023/06/18 10:12:15;;;;;;;12.23;7.35;;;23.00;73.60;;;;;;10450852;28;20028;-67
2023/06/18 10:17:34;;;;;;;11.25;7.53;;;23.00;73.50;;;;;;10435329;28;21281;-66
2023/06/18 10:22:46;;;;;;;10.45;7.70;;;23.10;73.60;;;;;;10427852;28;20104;-66
2023/06/18 10:27:49;;;;;;;10.35;7.00;;;23.10;73.40;;;;;;10437853;28;20177;-66
2023/06/18 10:32:51;;;;;;;9.38;7.07;;;23.10;73.30;;;;;;10443229;28;20034;-67
2023/06/18 10:37:52;;;;;;;9.45;6.68;;;23.20;73.30;;;;;;10442712;28;20115;-66
2023/06/18 10:43:03;;;;;;;10.68;7.35;;;23.30;73.20;;;;;;10438594;28;20162;-67
2023/06/18 10:48:18;;;;;;;8.70;6.68;;;23.30;73.10;;;;;;10436610;28;20025;-66
2023/06/18 10:53:22;;;;;;;10.77;7.57;;;23.40;73.00;;;;;;10436760;28;20562;-67
2023/06/18 10:58:33;;;;;;;10.00;7.22;;;23.40;72.80;;;;;;10452490;28;20043;-68
2023/06/18 11:03:36;;;;;;;11.00;7.18;;;23.50;72.70;;;;;;10446032;28;20017;-67
2023/06/18 11:08:39;;;;;;;9.63;7.00;;;23.60;72.60;;;;;;10441511;28;20032;-67
2023/06/18 11:13:50;;;;;;;10.05;7.30;;;23.60;72.60;;;;;;10451898;28;20061;-67
2023/06/18 11:18:57;;;;;;;9.15;6.85;;;23.70;72.50;;;;;;10448761;28;20139;-67
2023/06/18 11:23:58;;;;;;;9.50;7.28;;;23.70;72.40;;;;;;10451558;28;20029;-68
2023/06/18 11:29:01;;;;;;;11.00;7.30;;;23.80;72.50;;;;;;10447960;28;20033;-68
2023/06/18 11:34:04;;;;;;;14.23;7.25;;;23.80;72.30;;;;;;10444804;28;20507;-70
2023/06/18 11:39:04;;;;;;;7.72;6.28;;;23.90;72.20;;;;;;10452045;28;20029;-70
2023/06/18 11:44:05;;;;;;;8.65;6.70;;;24.00;72.00;;;;;;10444896;28;20021;-69
2023/06/18 11:49:15;;;;;;;9.77;7.22;;;24.00;71.90;;;;;;10452976;28;20024;-70
2023/06/18 11:54:16;;;;;;;9.52;7.22;;;24.10;71.70;;;;;;10444692;28;20113;-70
2023/06/18 11:59:16;;;;;;;8.77;6.57;;;24.20;71.70;;;;;;10432733;28;20078;-69
2023/06/18 12:04:17;;;;;;;8.02;6.30;;;24.20;71.50;;;;;;10442229;28;20040;-70
2023/06/18 12:09:18;;;;;;;8.52;6.07;;;24.20;71.40;;;;;;10439155;28;20047;-69
2023/06/18 12:14:53;;;;;;;7.38;6.15;;;24.30;71.30;;;;;;10444028;28;20017;-69
2023/06/18 12:19:59;;;;;;;8.93;6.78;;;24.30;71.10;;;;;;10452620;28;20018;-70
2023/06/18 12:25:00;;;;;;;9.73;6.50;;;24.40;71.10;;;;;;10440918;28;20071;-70
2023/06/18 12:30:03;;;;;;;8.00;5.82;;;24.40;71.00;;;;;;10437829;28;20021;-70
2023/06/18 12:35:14;;;;;;;7.93;6.25;;;24.40;70.90;;;;;;10451595;28;20495;-70
2023/06/18 12:40:19;;;;;;;8.15;5.85;;;24.50;70.60;;;;;;10436098;28;20025;-69
2023/06/18 12:45:27;;;;;;;9.30;6.95;;;24.50;70.60;;;;;;10437935;28;20484;-70
2023/06/18 12:50:34;;;;;;;8.82;6.22;;;24.50;70.40;;;;;;10427135;28;20021;-70
2023/06/18 12:55:35;;;;;;;9.52;6.20;;;24.50;70.40;;;;;;10443907;28;20044;-70
2023/06/18 13:00:36;;;;;;;8.77;6.80;;;24.50;70.30;;;;;;10443763;28;20048;-73
2023/06/18 13:05:37;;;;;;;8.63;6.53;;;24.60;69.60;;;;;;10443982;28;20025;-70
2023/06/18 13:10:37;;;;;;;9.00;6.70;;;25.00;67.80;;;;;;10439314;28;20021;-71
2023/06/18 13:15:40;;;;;;;8.85;6.38;;;25.10;67.10;;;;;;10441186;28;20028;-70
2023/06/18 13:20:41;;;;;;;9.88;6.40;;;25.00;67.00;;;;;;10441012;28;20068;-71
2023/06/18 13:25:42;;;;;;;8.52;6.70;;;24.90;67.10;;;;;;10446174;28;21473;-70
2023/06/18 13:30:43;;;;;;;11.82;6.18;;;24.90;67.30;;;;;;10451815;28;20025;-71
2023/06/18 13:35:43;;;;;;;8.63;6.07;;;24.80;67.30;;;;;;10448173;28;20017;-71
2023/06/18 13:40:44;;;;;;;9.27;6.90;;;24.80;67.40;;;;;;10442921;28;20005;-71
2023/06/18 13:45:44;;;;;;;8.93;6.18;;;24.70;67.40;;;;;;10437048;28;20043;-71
2023/06/18 13:50:45;;;;;;;8.20;6.32;;;24.70;67.70;;;;;;10438077;28;20596;-70
2023/06/18 13:55:46;;;;;;;7.22;6.05;;;24.70;67.80;;;;;;10445291;28;20439;-70
2023/06/18 14:00:47;;;;;;;7.97;6.10;;;24.70;67.90;;;;;;10439892;28;20504;-71
2023/06/18 14:05:47;;;;;;;9.68;6.45;;;24.70;68.00;;;;;;10445130;28;20032;-70
2023/06/18 14:10:48;;;;;;;8.30;5.50;;;24.70;68.10;;;;;;10432602;28;20032;-71
2023/06/18 14:15:49;;;;;;;8.38;6.00;;;24.70;68.20;;;;;;10440312;28;20037;-71
2023/06/18 14:20:49;;;;;;;7.60;5.93;;;24.70;68.80;;;;;;10440667;28;20033;-71
2023/06/18 14:25:50;;;;;;;6.88;5.97;;;24.70;68.20;;;;;;10442868;28;20028;-71
2023/06/18 14:30:50;;;;;;;9.18;5.70;;;24.70;68.30;;;;;;10455728;28;20517;-71
2023/06/18 14:35:51;;;;;;;8.10;5.80;;;24.70;68.40;;;;;;10449894;28;20025;-71
2023/06/18 14:40:52;;;;;;;9.00;6.10;;;24.70;68.50;;;;;;10440046;28;20102;-71
2023/06/18 14:45:53;;;;;;;10.18;7.88;;;24.70;68.50;;;;;;10449969;28;20103;-71
2023/06/18 14:50:54;;;;;;;13.75;8.40;;;24.60;68.50;;;;;;10440731;28;20025;-71
2023/06/18 14:55:55;;;;;;;10.63;7.45;;;24.60;68.60;;;;;;10455939;28;20546;-70
2023/06/18 15:00:55;;;;;;;8.18;6.60;;;24.70;68.70;;;;;;10455243;28;20016;-71
2023/06/18 15:05:56;;;;;;;8.70;6.25;;;24.70;68.70;;;;;;10447561;28;20037;-71
2023/06/18 15:10:56;;;;;;;8.20;5.90;;;24.60;68.70;;;;;;10446496;28;20204;-71
2023/06/18 15:15:57;;;;;;;9.95;6.70;;;24.60;68.40;;;;;;10448762;28;20026;-71
2023/06/18 15:20:58;;;;;;;8.13;6.00;;;24.70;68.10;;;;;;10449668;28;20102;-71
2023/06/18 15:25:58;;;;;;;8.90;6.13;;;24.60;68.00;;;;;;10450700;28;20093;-70
2023/06/18 15:30:59;;;;;;;6.68;5.75;;;24.60;67.70;;;;;;10439381;28;20025;-70
2023/06/18 15:36:00;;;;;;;7.38;6.22;;;24.60;67.70;;;;;;10441826;28;20382;-71
2023/06/18 15:41:00;;;;;;;8.32;6.35;;;24.60;67.80;;;;;;10449496;28;20336;-71
2023/06/18 15:46:01;;;;;;;8.05;6.00;;;24.60;68.00;;;;;;10445999;28;20496;-71
2023/06/18 15:51:01;;;;;;;8.68;6.07;;;24.60;68.10;;;;;;10445417;28;20494;-71
2023/06/18 15:56:02;;;;;;;7.57;6.15;;;24.60;68.20;;;;;;10445367;28;20551;-71
2023/06/18 16:01:03;;;;;;;9.68;6.00;;;24.50;68.30;;;;;;10440679;28;20021;-71
2023/06/18 16:06:03;;;;;;;8.55;6.47;;;24.50;68.60;;;;;;10448719;28;20072;-71
2023/06/18 16:11:04;;;;;;;7.97;6.00;;;24.50;68.80;;;;;;10442964;28;20026;-71
2023/06/18 16:16:04;;;;;;;9.57;6.43;;;24.50;69.00;;;;;;10449280;28;20185;-70
2023/06/18 16:21:07;;;;;;;7.78;6.03;;;24.50;69.50;;;;;;10443888;28;20059;-70
2023/06/18 16:26:07;;;;;;;9.00;6.50;;;24.50;69.70;;;;;;10441191;28;20130;-70
2023/06/18 16:31:08;;;;;;;9.80;6.43;;;24.40;69.90;;;;;;10448841;28;20032;-71
2023/06/18 16:36:10;;;;;;;7.15;5.90;;;24.40;70.10;;;;;;10446466;28;20029;-71
2023/06/18 16:41:11;;;;;;;8.52;6.50;;;24.30;70.20;;;;;;10447138;28;20021;-71
2023/06/18 16:46:12;;;;;;;9.10;6.20;;;24.20;70.60;;;;;;10455056;28;20020;-72
2023/06/18 16:51:12;;;;;;;11.63;7.00;;;24.20;70.80;;;;;;10440968;28;20025;-71
2023/06/18 16:56:14;;;;;;;8.57;6.78;;;24.20;71.20;;;;;;10440786;28;20199;-69
2023/06/18 17:01:15;;;;;;;10.73;6.43;;;24.20;72.30;;;;;;10450302;28;20020;-68
2023/06/18 17:06:16;;;;;;;8.35;6.60;;;24.10;72.00;;;;;;10449594;28;20044;-68
2023/06/18 17:11:18;;;;;;;8.02;6.63;;;24.10;71.90;;;;;;10452832;28;20115;-68
2023/06/18 17:16:19;;;;;;;8.35;6.18;;;24.10;72.40;;;;;;10445402;28;20021;-68
2023/06/18 17:21:20;;;;;;;7.90;6.00;;;24.10;72.20;;;;;;10443842;28;20512;-68
2023/06/18 17:26:21;;;;;;;8.40;5.97;;;24.10;72.10;;;;;;10445798;28;20037;-67
2023/06/18 17:31:25;;;;;;;7.78;6.10;;;24.10;72.30;;;;;;10440438;28;20029;-68
2023/06/18 17:36:26;;;;;;;7.75;6.40;;;24.10;72.30;;;;;;10455702;28;20481;-67
2023/06/18 17:41:27;;;;;;;9.63;6.43;;;24.00;72.40;;;;;;10445526;28;20112;-68
2023/06/18 17:46:27;;;;;;;8.10;6.03;;;24.00;72.60;;;;;;10443992;28;20017;-69
2023/06/18 17:51:29;;;;;;;7.95;6.53;;;24.00;72.80;;;;;;10437248;28;20029;-68
2023/06/18 17:56:30;;;;;;;7.70;6.38;;;24.00;72.70;;;;;;10439501;28;20075;-68
2023/06/18 18:01:30;;;;;;;8.50;6.10;;;24.00;72.80;;;;;;10438783;28;20025;-66
2023/06/18 18:06:31;;;;;;;8.25;6.60;;;24.00;72.80;;;;;;10433885;28;20034;-66
2023/06/18 18:11:32;;;;;;;9.10;5.75;;;23.90;73.00;;;;;;10441348;28;20025;-66
2023/06/18 18:16:32;;;;;;;9.82;6.55;;;23.90;73.10;;;;;;10429044;28;20028;-66
2023/06/18 18:21:33;;;;;;;6.47;5.68;;;24.00;73.10;;;;;;10444699;28;20024;-67
2023/06/18 18:26:34;;;;;;;8.70;6.85;;;23.90;73.00;;;;;;10429528;28;20036;-64
2023/06/18 18:31:35;;;;;;;7.95;6.35;;;23.90;73.20;;;;;;10437127;28;20393;-62
2023/06/18 18:36:36;;;;;;;9.93;6.43;;;23.80;73.10;;;;;;10438627;28;20312;-63
2023/06/18 18:41:36;;;;;;;8.13;6.30;;;23.90;73.10;;;;;;10438366;28;20048;-63
2023/06/18 18:46:37;;;;;;;7.53;6.05;;;23.90;73.10;;;;;;10429122;28;20034;-63
2023/06/18 18:51:37;;;;;;;10.80;6.45;;;23.80;73.00;;;;;;10430904;28;20049;-63
2023/06/18 18:56:38;;;;;;;8.07;6.45;;;23.80;73.00;;;;;;10433781;28;21377;-63
2023/06/18 19:01:40;;;;;;;7.45;6.05;;;23.80;72.90;;;;;;10439690;28;20576;-62
2023/06/18 19:06:40;;;;;;;8.88;6.25;;;23.80;72.90;;;;;;10433348;28;20029;-63
2023/06/18 19:11:41;;;;;;;7.20;5.53;;;23.70;72.90;;;;;;10438765;28;20033;-62
2023/06/18 19:16:41;;;;;;;7.60;5.88;;;23.80;73.00;;;;;;10442049;28;20034;-63
2023/06/18 19:21:42;;;;;;;7.75;5.65;;;23.80;72.90;;;;;;10447870;28;20033;-63
2023/06/18 19:26:42;;;;;;;7.15;5.97;;;23.70;72.80;;;;;;10448061;28;20034;-63
2023/06/18 19:31:44;;;;;;;6.53;5.38;;;23.70;72.80;;;;;;10450538;28;20029;-64
2023/06/18 19:36:45;;;;;;;7.38;6.25;;;23.70;72.80;;;;;;10442348;28;20016;-63
2023/06/18 19:41:45;;;;;;;7.15;5.68;;;23.70;72.80;;;;;;10445842;28;20033;-63
2023/06/18 19:46:46;;;;;;;6.90;5.30;;;23.70;72.70;;;;;;10449908;28;20021;-63
2023/06/18 19:51:47;;;;;;;6.80;5.78;;;23.70;72.80;;;;;;10442650;28;20028;-63
2023/06/18 19:56:47;;;;;;;7.18;5.43;;;23.70;72.80;;;;;;10436859;28;20481;-63
2023/06/18 20:01:48;;;;;;;7.30;5.63;;;23.60;72.70;;;;;;10440703;28;20100;-63
2023/06/18 20:06:48;;;;;;;6.53;5.75;;;23.60;72.70;;;;;;10438792;28;20025;-64
2023/06/18 20:11:49;;;;;;;6.50;5.53;;;23.60;72.70;;;;;;10446778;28;20043;-64
2023/06/18 20:16:50;;;;;;;7.47;5.45;;;23.60;72.70;;;;;;10443388;28;20693;-63
2023/06/18 20:21:51;;;;;;;6.10;5.50;;;23.60;72.70;;;;;;10447790;28;20032;-63
2023/06/18 20:26:51;;;;;;;6.90;5.72;;;23.60;72.70;;;;;;10431911;28;20035;-63
2023/06/18 20:31:52;;;;;;;7.95;5.85;;;23.50;72.70;;;;;;10432327;28;20016;-63
2023/06/18 20:36:53;;;;;;;8.43;6.15;;;23.60;72.80;;;;;;10439953;28;20469;-63
2023/06/18 20:41:53;;;;;;;7.30;5.97;;;23.50;72.80;;;;;;10434756;28;20397;-63
2023/06/18 20:46:54;;;;;;;7.05;5.85;;;23.50;72.80;;;;;;10443278;28;20021;-63
2023/06/18 20:51:54;;;;;;;6.28;5.40;;;23.50;72.80;;;;;;10433609;28;20153;-63
2023/06/18 20:56:55;;;;;;;7.40;6.03;;;23.50;72.80;;;;;;10431042;28;20025;-63
2023/06/18 21:01:55;;;;;;;8.38;5.78;;;23.40;72.80;;;;;;10439447;28;20064;-65
2023/06/18 21:06:56;;;;;;;7.25;5.55;;;23.40;72.80;;;;;;10442888;28;20032;-65
2023/06/18 21:11:57;;;;;;;6.47;5.22;;;23.40;72.80;;;;;;10438526;28;20085;-65
2023/06/18 21:16:59;;;;;;;6.90;5.50;;;23.40;72.80;;;;;;10435128;28;20025;-66
2023/06/18 21:22:01;;;;;;;6.95;5.78;;;23.40;72.80;;;;;;10444990;28;20072;-67
2023/06/18 21:27:02;;;;;;;7.30;5.38;;;23.40;72.80;;;;;;10439083;28;20037;-66
2023/06/18 21:32:04;;;;;;;8.00;5.80;;;23.40;72.80;;;;;;10443491;28;20036;-66
2023/06/18 21:37:05;;;;;;;6.90;5.90;;;23.30;72.80;;;;;;10431877;28;20084;-66
2023/06/18 21:42:06;;;;;;;7.75;5.45;;;23.30;72.90;;;;;;10432283;28;20116;-66
2023/06/18 21:47:07;;;;;;;6.40;5.57;;;23.30;72.90;;;;;;10448544;28;20025;-66
2023/06/18 21:52:07;;;;;;;7.30;5.60;;;23.30;72.90;;;;;;10443675;28;20104;-66
2023/06/18 21:57:08;;;;;;;7.05;5.35;;;23.30;72.80;;;;;;10444154;28;20032;-67
2023/06/18 22:02:08;;;;;;;6.57;5.50;;;23.30;72.90;;;;;;10439292;28;20310;-67
2023/06/18 22:07:09;;;;;;;7.75;5.78;;;23.30;72.90;;;;;;10434903;28;20493;-66
2023/06/18 22:12:10;;;;;;;7.55;5.80;;;23.20;72.80;;;;;;10437079;28;20709;-67
2023/06/18 22:17:13;;;;;;;6.80;5.82;;;23.20;72.80;;;;;;10444529;28;20029;-66
2023/06/18 22:22:14;;;;;;;7.97;5.90;;;23.20;72.80;;;;;;10431872;28;20095;-66
2023/06/18 22:27:14;;;;;;;7.10;5.90;;;23.10;73.40;;;;;;10432799;28;20079;-66
2023/06/18 22:32:15;;;;;;;6.07;5.47;;;23.10;72.90;;;;;;10439254;28;20009;-66
2023/06/18 22:37:15;;;;;;;8.40;5.57;;;23.20;72.90;;;;;;10431124;28;20183;-66
2023/06/18 22:42:16;;;;;;;8.52;5.70;;;23.20;73.00;;;;;;10424220;28;20040;-66
2023/06/18 22:47:17;;;;;;;8.55;5.90;;;23.10;72.90;;;;;;10433779;28;20096;-66
2023/06/18 22:52:17;;;;;;;7.18;5.90;;;23.20;73.00;;;;;;10440199;28;20036;-66
2023/06/18 22:57:18;;;;;;;6.70;5.90;;;23.00;72.90;;;;;;10445701;28;20103;-65
2023/06/18 23:02:18;;;;;;;7.68;6.20;;;23.10;72.90;;;;;;10442202;28;20234;-66
2023/06/18 23:07:19;;;;;;;6.80;5.63;;;23.10;72.90;;;;;;10454177;28;20028;-66
2023/06/18 23:12:19;;;;;;;7.40;5.95;;;23.10;72.90;;;;;;10457177;28;20385;-66
2023/06/18 23:17:20;;;;;;;7.72;5.65;;;23.10;72.90;;;;;;10448779;28;20090;-67
2023/06/18 23:22:26;;;;;;;7.82;5.82;;;23.10;73.00;;;;;;10438339;28;20481;-66
2023/06/18 23:27:27;;;;;;;7.53;5.72;;;23.10;73.00;;;;;;10444991;28;20029;-67
2023/06/18 23:32:29;;;;;;;8.68;5.63;;;23.10;73.00;;;;;;10444777;28;20021;-66
2023/06/18 23:37:33;;;;;;;7.93;5.80;;;23.00;72.90;;;;;;10442902;28;20017;-67
2023/06/18 23:42:33;;;;;;;7.13;5.53;;;23.00;72.90;;;;;;10450271;28;20121;-65
2023/06/18 23:47:34;;;;;;;8.55;6.32;;;23.00;72.90;;;;;;10454598;28;20040;-66
2023/06/18 23:52:34;;;;;;;7.15;5.78;;;23.00;73.60;;;;;;10445036;28;20046;-67
2023/06/18 23:57:35;;;;;;;7.13;5.38;;;23.00;73.00;;;;;;10457270;28;20022;-67
